sensor_id;sensor_type;location;lat;lon;timestamp;P1;durP1;ratioP1;P2;durP2;ratioP2
10904;SDS011;5505;51.450;9.254;2023-08-21T00:02:30;7.63;;;5.83;;
10904;SDS011;5505;51.450;9.254;2023-08-21T00:05:16;6.77;;;5.93;;
10904;SDS011;5505;51.450;9.254;2023-08-21T00:08:05;6.73;;;5.87;;
10904;SDS011;5505;51.450;9.254;2023-08-21T00:10:52;7.77;;;5.80;;
10904;SDS011;5505;51.450;9.254;2023-08-21T00:13:38;8.50;;;6.50;;
10904;SDS011;5505;51.450;9.254;2023-08-21T00:16:28;8.73;;;6.20;;
10904;SDS011;5505;51.450;9.254;2023-08-21T00:19:15;6.10;;;5.50;;
10904;SDS011;5505;51.450;9.254;2023-08-21T00:22:01;8.03;;;5.90;;
10904;SDS011;5505;51.450;9.254;2023-08-21T00:24:49;6.13;;;5.43;;
10904;SDS011;5505;51.450;9.254;2023-08-21T00:27:36;7.63;;;5.83;;
10904;SDS011;5505;51.450;9.254;2023-08-21T00:30:23;6.33;;;5.73;;
10904;SDS011;5505;51.450;9.254;2023-08-21T00:33:10;7.00;;;6.30;;
10904;SDS011;5505;51.450;9.254;2023-08-21T00:35:57;7.03;;;6.30;;
10904;SDS011;5505;51.450;9.254;2023-08-21T00:38:44;6.80;;;6.10;;
10904;SDS011;5505;51.450;9.254;2023-08-21T00:41:32;6.30;;;5.70;;
10904;SDS011;5505;51.450;9.254;2023-08-21T00:44:19;6.23;;;5.60;;
10904;SDS011;5505;51.450;9.254;2023-08-21T00:47:06;8.73;;;5.67;;
10904;SDS011;5505;51.450;9.254;2023-08-21T00:49:53;6.77;;;5.70;;
10904;SDS011;5505;51.450;9.254;2023-08-21T00:52:40;9.60;;;6.20;;
10904;SDS011;5505;51.450;9.254;2023-08-21T00:55:28;7.13;;;5.60;;
10904;SDS011;5505;51.450;9.254;2023-08-21T00:58:17;6.43;;;5.57;;
10904;SDS011;5505;51.450;9.254;2023-08-21T01:01:04;5.93;;;5.33;;
10904;SDS011;5505;51.450;9.254;2023-08-21T01:03:51;8.50;;;5.40;;
10904;SDS011;5505;51.450;9.254;2023-08-21T01:06:38;7.60;;;5.57;;
10904;SDS011;5505;51.450;9.254;2023-08-21T01:09:25;6.67;;;5.50;;
10904;SDS011;5505;51.450;9.254;2023-08-21T01:12:18;5.87;;;5.30;;
10904;SDS011;5505;51.450;9.254;2023-08-21T01:15:11;7.70;;;5.60;;
10904;SDS011;5505;51.450;9.254;2023-08-21T01:17:59;6.70;;;5.70;;
10904;SDS011;5505;51.450;9.254;2023-08-21T01:20:46;9.23;;;5.80;;
10904;SDS011;5505;51.450;9.254;2023-08-21T01:23:35;7.57;;;6.17;;
10904;SDS011;5505;51.450;9.254;2023-08-21T01:26:22;7.10;;;6.40;;
10904;SDS011;5505;51.450;9.254;2023-08-21T01:29:09;8.43;;;6.40;;
10904;SDS011;5505;51.450;9.254;2023-08-21T01:31:58;6.73;;;6.23;;
10904;SDS011;5505;51.450;9.254;2023-08-21T01:34:48;7.20;;;6.33;;
10904;SDS011;5505;51.450;9.254;2023-08-21T01:37:37;6.03;;;5.53;;
10904;SDS011;5505;51.450;9.254;2023-08-21T01:40:25;8.00;;;6.13;;
10904;SDS011;5505;51.450;9.254;2023-08-21T01:43:12;6.10;;;5.50;;
10904;SDS011;5505;51.450;9.254;2023-08-21T01:46:00;7.37;;;5.70;;
10904;SDS011;5505;51.450;9.254;2023-08-21T01:48:47;6.03;;;5.53;;
10904;SDS011;5505;51.450;9.254;2023-08-21T01:51:34;6.00;;;5.40;;
10904;SDS011;5505;51.450;9.254;2023-08-21T01:54:21;5.97;;;5.13;;
10904;SDS011;5505;51.450;9.254;2023-08-21T01:57:09;7.20;;;5.07;;
10904;SDS011;5505;51.450;9.254;2023-08-21T01:59:55;5.00;;;4.50;;
10904;SDS011;5505;51.450;9.254;2023-08-21T02:02:42;6.60;;;4.80;;
10904;SDS011;5505;51.450;9.254;2023-08-21T02:05:29;4.87;;;4.40;;
10904;SDS011;5505;51.450;9.254;2023-08-21T02:08:17;6.47;;;4.37;;
10904;SDS011;5505;51.450;9.254;2023-08-21T02:11:04;7.90;;;4.50;;
10904;SDS011;5505;51.450;9.254;2023-08-21T02:13:52;6.30;;;4.47;;
10904;SDS011;5505;51.450;9.254;2023-08-21T02:16:39;5.50;;;4.47;;
10904;SDS011;5505;51.450;9.254;2023-08-21T02:19:26;4.60;;;4.20;;
10904;SDS011;5505;51.450;9.254;2023-08-21T02:22:13;5.00;;;4.50;;
10904;SDS011;5505;51.450;9.254;2023-08-21T02:24:59;6.20;;;4.50;;
10904;SDS011;5505;51.450;9.254;2023-08-21T02:27:46;14.47;;;5.03;;
10904;SDS011;5505;51.450;9.254;2023-08-21T02:30:34;7.77;;;4.80;;
10904;SDS011;5505;51.450;9.254;2023-08-21T02:33:21;5.47;;;5.00;;
10904;SDS011;5505;51.450;9.254;2023-08-21T02:36:08;7.60;;;4.70;;
10904;SDS011;5505;51.450;9.254;2023-08-21T02:38:55;6.10;;;4.73;;
10904;SDS011;5505;51.450;9.254;2023-08-21T02:41:41;5.90;;;4.80;;
10904;SDS011;5505;51.450;9.254;2023-08-21T02:44:28;9.00;;;5.10;;
10904;SDS011;5505;51.450;9.254;2023-08-21T02:47:16;8.40;;;5.57;;
10904;SDS011;5505;51.450;9.254;2023-08-21T02:50:03;6.57;;;4.90;;
10904;SDS011;5505;51.450;9.254;2023-08-21T02:52:51;5.23;;;4.60;;
10904;SDS011;5505;51.450;9.254;2023-08-21T02:55:38;6.83;;;4.13;;
10904;SDS011;5505;51.450;9.254;2023-08-21T02:58:24;6.07;;;4.20;;
10904;SDS011;5505;51.450;9.254;2023-08-21T03:01:11;5.73;;;4.83;;
10904;SDS011;5505;51.450;9.254;2023-08-21T03:03:59;9.23;;;5.60;;
10904;SDS011;5505;51.450;9.254;2023-08-21T03:06:46;6.20;;;5.00;;
10904;SDS011;5505;51.450;9.254;2023-08-21T03:09:33;9.23;;;5.40;;
10904;SDS011;5505;51.450;9.254;2023-08-21T03:12:19;6.33;;;5.33;;
10904;SDS011;5505;51.450;9.254;2023-08-21T03:15:06;6.70;;;5.73;;
10904;SDS011;5505;51.450;9.254;2023-08-21T03:17:53;5.83;;;5.20;;
10904;SDS011;5505;51.450;9.254;2023-08-21T03:20:45;6.53;;;5.13;;
10904;SDS011;5505;51.450;9.254;2023-08-21T03:23:32;6.47;;;4.43;;
10904;SDS011;5505;51.450;9.254;2023-08-21T03:26:19;5.77;;;4.97;;
10904;SDS011;5505;51.450;9.254;2023-08-21T03:29:05;6.70;;;5.20;;
10904;SDS011;5505;51.450;9.254;2023-08-21T03:31:52;7.73;;;5.23;;
10904;SDS011;5505;51.450;9.254;2023-08-21T03:34:39;7.97;;;5.67;;
10904;SDS011;5505;51.450;9.254;2023-08-21T03:37:27;12.20;;;5.33;;
10904;SDS011;5505;51.450;9.254;2023-08-21T03:40:14;6.67;;;4.87;;
10904;SDS011;5505;51.450;9.254;2023-08-21T03:43:01;6.73;;;4.67;;
10904;SDS011;5505;51.450;9.254;2023-08-21T03:45:48;8.37;;;4.63;;
10904;SDS011;5505;51.450;9.254;2023-08-21T03:48:34;9.07;;;4.90;;
10904;SDS011;5505;51.450;9.254;2023-08-21T03:51:21;6.83;;;5.03;;
10904;SDS011;5505;51.450;9.254;2023-08-21T03:54:09;6.50;;;4.80;;
10904;SDS011;5505;51.450;9.254;2023-08-21T03:56:56;7.00;;;4.63;;
10904;SDS011;5505;51.450;9.254;2023-08-21T03:59:43;6.07;;;4.70;;
10904;SDS011;5505;51.450;9.254;2023-08-21T04:02:30;5.53;;;4.93;;
10904;SDS011;5505;51.450;9.254;2023-08-21T04:05:17;8.77;;;5.90;;
10904;SDS011;5505;51.450;9.254;2023-08-21T04:08:04;5.60;;;5.10;;
10904;SDS011;5505;51.450;9.254;2023-08-21T04:10:52;6.13;;;5.00;;
10904;SDS011;5505;51.450;9.254;2023-08-21T04:13:44;6.63;;;5.10;;
10904;SDS011;5505;51.450;9.254;2023-08-21T04:16:30;8.50;;;5.53;;
10904;SDS011;5505;51.450;9.254;2023-08-21T04:19:17;6.30;;;5.70;;
10904;SDS011;5505;51.450;9.254;2023-08-21T04:22:04;6.50;;;4.90;;
10904;SDS011;5505;51.450;9.254;2023-08-21T04:24:51;6.97;;;5.30;;
10904;SDS011;5505;51.450;9.254;2023-08-21T04:27:39;5.30;;;4.90;;
10904;SDS011;5505;51.450;9.254;2023-08-21T04:30:25;7.27;;;6.10;;
10904;SDS011;5505;51.450;9.254;2023-08-21T04:33:12;8.47;;;6.27;;
10904;SDS011;5505;51.450;9.254;2023-08-21T04:35:59;8.57;;;5.90;;
10904;SDS011;5505;51.450;9.254;2023-08-21T04:38:46;9.07;;;6.73;;
10904;SDS011;5505;51.450;9.254;2023-08-21T04:41:32;10.77;;;6.83;;
10904;SDS011;5505;51.450;9.254;2023-08-21T04:44:21;7.67;;;6.90;;
10904;SDS011;5505;51.450;9.254;2023-08-21T04:50:11;8.97;;;6.93;;
10904;SDS011;5505;51.450;9.254;2023-08-21T04:52:58;8.43;;;6.63;;
10904;SDS011;5505;51.450;9.254;2023-08-21T04:55:45;7.63;;;6.50;;
10904;SDS011;5505;51.450;9.254;2023-08-21T04:58:31;10.70;;;7.20;;
10904;SDS011;5505;51.450;9.254;2023-08-21T05:01:20;8.43;;;6.10;;
10904;SDS011;5505;51.450;9.254;2023-08-21T05:04:06;8.33;;;6.57;;
10904;SDS011;5505;51.450;9.254;2023-08-21T05:06:53;7.73;;;6.80;;
10904;SDS011;5505;51.450;9.254;2023-08-21T05:09:40;9.57;;;6.13;;
10904;SDS011;5505;51.450;9.254;2023-08-21T05:12:27;6.93;;;5.73;;
10904;SDS011;5505;51.450;9.254;2023-08-21T05:15:14;9.83;;;6.10;;
10904;SDS011;5505;51.450;9.254;2023-08-21T05:18:03;12.80;;;6.83;;
10904;SDS011;5505;51.450;9.254;2023-08-21T05:20:50;8.67;;;6.50;;
10904;SDS011;5505;51.450;9.254;2023-08-21T05:23:40;7.67;;;6.37;;
10904;SDS011;5505;51.450;9.254;2023-08-21T05:26:26;6.67;;;6.07;;
10904;SDS011;5505;51.450;9.254;2023-08-21T05:29:13;6.57;;;5.90;;
10904;SDS011;5505;51.450;9.254;2023-08-21T05:32:00;7.07;;;5.53;;
10904;SDS011;5505;51.450;9.254;2023-08-21T05:34:48;6.40;;;5.30;;
10904;SDS011;5505;51.450;9.254;2023-08-21T05:37:35;6.30;;;5.70;;
10904;SDS011;5505;51.450;9.254;2023-08-21T05:40:22;5.70;;;5.10;;
10904;SDS011;5505;51.450;9.254;2023-08-21T05:43:09;6.87;;;5.63;;
10904;SDS011;5505;51.450;9.254;2023-08-21T05:45:55;6.13;;;5.20;;
10904;SDS011;5505;51.450;9.254;2023-08-21T05:48:42;6.90;;;5.13;;
10904;SDS011;5505;51.450;9.254;2023-08-21T05:51:31;8.83;;;5.70;;
10904;SDS011;5505;51.450;9.254;2023-08-21T05:54:18;6.50;;;5.20;;
10904;SDS011;5505;51.450;9.254;2023-08-21T05:57:06;7.23;;;5.33;;
10904;SDS011;5505;51.450;9.254;2023-08-21T05:59:53;6.93;;;5.10;;
10904;SDS011;5505;51.450;9.254;2023-08-21T06:02:40;6.33;;;4.80;;
10904;SDS011;5505;51.450;9.254;2023-08-21T06:05:28;7.53;;;5.13;;
10904;SDS011;5505;51.450;9.254;2023-08-21T06:08:16;7.30;;;4.97;;
10904;SDS011;5505;51.450;9.254;2023-08-21T06:11:03;6.40;;;4.60;;
10904;SDS011;5505;51.450;9.254;2023-08-21T06:13:50;7.03;;;4.50;;
10904;SDS011;5505;51.450;9.254;2023-08-21T06:16:36;6.17;;;4.43;;
10904;SDS011;5505;51.450;9.254;2023-08-21T06:19:23;8.70;;;4.57;;
10904;SDS011;5505;51.450;9.254;2023-08-21T06:22:10;5.47;;;4.33;;
10904;SDS011;5505;51.450;9.254;2023-08-21T06:24:58;7.07;;;4.53;;
10904;SDS011;5505;51.450;9.254;2023-08-21T06:27:45;5.93;;;4.27;;
10904;SDS011;5505;51.450;9.254;2023-08-21T06:30:31;7.57;;;4.30;;
10904;SDS011;5505;51.450;9.254;2023-08-21T06:33:18;7.83;;;4.07;;
10904;SDS011;5505;51.450;9.254;2023-08-21T06:36:05;7.27;;;3.87;;
10904;SDS011;5505;51.450;9.254;2023-08-21T06:38:52;8.97;;;4.40;;
10904;SDS011;5505;51.450;9.254;2023-08-21T06:41:40;6.53;;;4.80;;
10904;SDS011;5505;51.450;9.254;2023-08-21T06:44:27;6.63;;;4.40;;
10904;SDS011;5505;51.450;9.254;2023-08-21T06:47:14;4.77;;;4.07;;
10904;SDS011;5505;51.450;9.254;2023-08-21T06:50:00;6.70;;;4.03;;
10904;SDS011;5505;51.450;9.254;2023-08-21T06:52:47;6.03;;;3.77;;
10904;SDS011;5505;51.450;9.254;2023-08-21T06:55:34;6.73;;;4.03;;
10904;SDS011;5505;51.450;9.254;2023-08-21T06:58:22;5.17;;;3.70;;
10904;SDS011;5505;51.450;9.254;2023-08-21T07:01:09;6.20;;;3.53;;
10904;SDS011;5505;51.450;9.254;2023-08-21T07:03:56;5.70;;;3.53;;
10904;SDS011;5505;51.450;9.254;2023-08-21T07:06:42;6.67;;;3.50;;
10904;SDS011;5505;51.450;9.254;2023-08-21T07:09:29;8.53;;;4.17;;
10904;SDS011;5505;51.450;9.254;2023-08-21T07:12:16;5.60;;;3.77;;
10904;SDS011;5505;51.450;9.254;2023-08-21T07:15:04;4.27;;;3.20;;
10904;SDS011;5505;51.450;9.254;2023-08-21T07:17:52;4.33;;;2.97;;
10904;SDS011;5505;51.450;9.254;2023-08-21T07:20:40;5.27;;;3.03;;
10904;SDS011;5505;51.450;9.254;2023-08-21T07:23:27;3.63;;;2.50;;
10904;SDS011;5505;51.450;9.254;2023-08-21T07:26:14;5.53;;;2.43;;
10904;SDS011;5505;51.450;9.254;2023-08-21T07:29:01;4.07;;;2.60;;
10904;SDS011;5505;51.450;9.254;2023-08-21T07:31:50;4.63;;;2.77;;
10904;SDS011;5505;51.450;9.254;2023-08-21T07:34:37;5.90;;;2.10;;
10904;SDS011;5505;51.450;9.254;2023-08-21T07:37:24;6.03;;;2.53;;
10904;SDS011;5505;51.450;9.254;2023-08-21T07:40:11;2.10;;;1.80;;
10904;SDS011;5505;51.450;9.254;2023-08-21T07:42:58;1.97;;;1.70;;
10904;SDS011;5505;51.450;9.254;2023-08-21T07:45:45;3.63;;;1.87;;
10904;SDS011;5505;51.450;9.254;2023-08-21T07:48:33;4.63;;;1.87;;
10904;SDS011;5505;51.450;9.254;2023-08-21T07:51:21;3.63;;;2.07;;
10904;SDS011;5505;51.450;9.254;2023-08-21T07:54:07;5.50;;;2.10;;
10904;SDS011;5505;51.450;9.254;2023-08-21T07:56:54;5.30;;;1.90;;
10904;SDS011;5505;51.450;9.254;2023-08-21T07:59:41;6.17;;;1.83;;
10904;SDS011;5505;51.450;9.254;2023-08-21T08:02:28;2.33;;;1.63;;
10904;SDS011;5505;51.450;9.254;2023-08-21T08:05:16;5.13;;;1.83;;
10904;SDS011;5505;51.450;9.254;2023-08-21T08:08:03;1.93;;;1.60;;
10904;SDS011;5505;51.450;9.254;2023-08-21T08:10:50;5.37;;;1.50;;
10904;SDS011;5505;51.450;9.254;2023-08-21T08:13:36;3.07;;;2.17;;
10904;SDS011;5505;51.450;9.254;2023-08-21T08:16:23;6.03;;;2.10;;
10904;SDS011;5505;51.450;9.254;2023-08-21T08:19:10;3.97;;;1.90;;
10904;SDS011;5505;51.450;9.254;2023-08-21T08:21:58;3.27;;;2.00;;
10904;SDS011;5505;51.450;9.254;2023-08-21T08:24:45;2.27;;;1.80;;
10904;SDS011;5505;51.450;9.254;2023-08-21T08:27:32;5.90;;;2.30;;
10904;SDS011;5505;51.450;9.254;2023-08-21T08:30:19;5.77;;;2.17;;
10904;SDS011;5505;51.450;9.254;2023-08-21T08:33:05;2.57;;;1.70;;
10904;SDS011;5505;51.450;9.254;2023-08-21T08:35:52;5.00;;;1.90;;
10904;SDS011;5505;51.450;9.254;2023-08-21T08:38:40;3.33;;;1.70;;
10904;SDS011;5505;51.450;9.254;2023-08-21T08:41:30;3.67;;;1.70;;
10904;SDS011;5505;51.450;9.254;2023-08-21T08:44:20;4.60;;;2.40;;
10904;SDS011;5505;51.450;9.254;2023-08-21T08:47:10;5.93;;;2.70;;
10904;SDS011;5505;51.450;9.254;2023-08-21T08:49:57;5.90;;;2.43;;
10904;SDS011;5505;51.450;9.254;2023-08-21T08:52:44;3.97;;;2.30;;
10904;SDS011;5505;51.450;9.254;2023-08-21T08:55:33;5.10;;;2.50;;
10904;SDS011;5505;51.450;9.254;2023-08-21T08:58:20;3.73;;;2.40;;
10904;SDS011;5505;51.450;9.254;2023-08-21T09:01:06;4.83;;;2.30;;
10904;SDS011;5505;51.450;9.254;2023-08-21T09:03:55;7.67;;;2.50;;
10904;SDS011;5505;51.450;9.254;2023-08-21T09:06:42;6.63;;;2.50;;
10904;SDS011;5505;51.450;9.254;2023-08-21T09:09:36;3.40;;;2.60;;
10904;SDS011;5505;51.450;9.254;2023-08-21T09:12:25;3.23;;;2.13;;
10904;SDS011;5505;51.450;9.254;2023-08-21T09:15:12;5.57;;;2.60;;
10904;SDS011;5505;51.450;9.254;2023-08-21T09:17:58;4.53;;;2.50;;
10904;SDS011;5505;51.450;9.254;2023-08-21T09:20:45;5.63;;;2.42;;
10904;SDS011;5505;51.450;9.254;2023-08-21T09:23:33;3.80;;;2.20;;
10904;SDS011;5505;51.450;9.254;2023-08-21T09:26:20;4.17;;;2.33;;
10904;SDS011;5505;51.450;9.254;2023-08-21T09:29:10;7.03;;;2.30;;
10904;SDS011;5505;51.450;9.254;2023-08-21T09:31:56;4.43;;;2.30;;
10904;SDS011;5505;51.450;9.254;2023-08-21T09:34:43;3.97;;;2.57;;
10904;SDS011;5505;51.450;9.254;2023-08-21T09:37:31;4.30;;;2.50;;
10904;SDS011;5505;51.450;9.254;2023-08-21T09:40:17;16.43;;;3.63;;
10904;SDS011;5505;51.450;9.254;2023-08-21T09:43:04;4.10;;;2.63;;
10904;SDS011;5505;51.450;9.254;2023-08-21T09:45:53;4.43;;;2.30;;
10904;SDS011;5505;51.450;9.254;2023-08-21T09:48:41;5.80;;;2.20;;
10904;SDS011;5505;51.450;9.254;2023-08-21T09:51:29;5.07;;;1.90;;
10904;SDS011;5505;51.450;9.254;2023-08-21T09:54:17;2.70;;;2.10;;
10904;SDS011;5505;51.450;9.254;2023-08-21T09:57:04;5.33;;;2.30;;
10904;SDS011;5505;51.450;9.254;2023-08-21T09:59:52;4.80;;;2.63;;
10904;SDS011;5505;51.450;9.254;2023-08-21T10:02:40;5.13;;;2.10;;
10904;SDS011;5505;51.450;9.254;2023-08-21T10:05:31;3.97;;;2.27;;
10904;SDS011;5505;51.450;9.254;2023-08-21T10:08:21;4.03;;;2.20;;
10904;SDS011;5505;51.450;9.254;2023-08-21T10:11:10;2.67;;;1.90;;
10904;SDS011;5505;51.450;9.254;2023-08-21T10:13:57;5.22;;;2.30;;
10904;SDS011;5505;51.450;9.254;2023-08-21T10:16:44;3.77;;;2.10;;
10904;SDS011;5505;51.450;9.254;2023-08-21T10:19:32;3.13;;;2.10;;
10904;SDS011;5505;51.450;9.254;2023-08-21T10:25:24;2.33;;;2.00;;
10904;SDS011;5505;51.450;9.254;2023-08-21T10:28:11;4.20;;;1.97;;
10904;SDS011;5505;51.450;9.254;2023-08-21T10:31:05;5.17;;;2.07;;
10904;SDS011;5505;51.450;9.254;2023-08-21T10:34:12;2.10;;;1.90;;
10904;SDS011;5505;51.450;9.254;2023-08-21T10:37:05;2.43;;;1.90;;
10904;SDS011;5505;51.450;9.254;2023-08-21T10:39:55;3.97;;;1.97;;
10904;SDS011;5505;51.450;9.254;2023-08-21T10:42:42;5.27;;;2.00;;
10904;SDS011;5505;51.450;9.254;2023-08-21T10:45:29;3.10;;;2.30;;
10904;SDS011;5505;51.450;9.254;2023-08-21T10:48:16;6.33;;;2.50;;
10904;SDS011;5505;51.450;9.254;2023-08-21T10:51:04;6.03;;;2.60;;
10904;SDS011;5505;51.450;9.254;2023-08-21T10:53:53;5.72;;;2.83;;
10904;SDS011;5505;51.450;9.254;2023-08-21T10:56:40;5.77;;;2.47;;
10904;SDS011;5505;51.450;9.254;2023-08-21T10:59:27;3.63;;;2.50;;
10904;SDS011;5505;51.450;9.254;2023-08-21T11:02:13;5.33;;;2.87;;
10904;SDS011;5505;51.450;9.254;2023-08-21T11:05:00;4.90;;;2.35;;
10904;SDS011;5505;51.450;9.254;2023-08-21T11:07:48;5.57;;;2.47;;
10904;SDS011;5505;51.450;9.254;2023-08-21T11:10:37;3.50;;;2.22;;
10904;SDS011;5505;51.450;9.254;2023-08-21T11:13:24;3.80;;;2.60;;
10904;SDS011;5505;51.450;9.254;2023-08-21T11:16:11;2.67;;;2.10;;
10904;SDS011;5505;51.450;9.254;2023-08-21T11:18:58;4.28;;;2.80;;
10904;SDS011;5505;51.450;9.254;2023-08-21T11:21:50;4.57;;;2.70;;
10904;SDS011;5505;51.450;9.254;2023-08-21T11:24:41;4.10;;;2.83;;
10904;SDS011;5505;51.450;9.254;2023-08-21T11:27:31;3.57;;;2.70;;
10904;SDS011;5505;51.450;9.254;2023-08-21T11:30:18;2.47;;;2.25;;
10904;SDS011;5505;51.450;9.254;2023-08-21T11:33:05;3.58;;;2.50;;
10904;SDS011;5505;51.450;9.254;2023-08-21T11:35:52;2.90;;;2.10;;
10904;SDS011;5505;51.450;9.254;2023-08-21T11:38:39;3.25;;;2.42;;
10904;SDS011;5505;51.450;9.254;2023-08-21T11:41:26;2.90;;;2.33;;
10904;SDS011;5505;51.450;9.254;2023-08-21T11:44:14;4.20;;;2.37;;
10904;SDS011;5505;51.450;9.254;2023-08-21T11:47:02;6.43;;;2.50;;
10904;SDS011;5505;51.450;9.254;2023-08-21T11:49:49;4.87;;;2.60;;
10904;SDS011;5505;51.450;9.254;2023-08-21T11:52:37;5.47;;;2.57;;
10904;SDS011;5505;51.450;9.254;2023-08-21T11:55:24;4.13;;;2.58;;
10904;SDS011;5505;51.450;9.254;2023-08-21T11:58:11;7.40;;;2.65;;
10904;SDS011;5505;51.450;9.254;2023-08-21T12:01:03;6.05;;;2.80;;
10904;SDS011;5505;51.450;9.254;2023-08-21T12:03:50;2.78;;;2.58;;
10904;SDS011;5505;51.450;9.254;2023-08-21T12:06:43;5.13;;;2.80;;
10904;SDS011;5505;51.450;9.254;2023-08-21T12:09:30;3.45;;;2.45;;
10904;SDS011;5505;51.450;9.254;2023-08-21T12:12:17;4.18;;;2.55;;
10904;SDS011;5505;51.450;9.254;2023-08-21T12:15:05;3.63;;;2.38;;
10904;SDS011;5505;51.450;9.254;2023-08-21T12:17:54;3.50;;;2.50;;
10904;SDS011;5505;51.450;9.254;2023-08-21T12:20:41;4.47;;;2.60;;
10904;SDS011;5505;51.450;9.254;2023-08-21T12:23:27;3.33;;;2.20;;
10904;SDS011;5505;51.450;9.254;2023-08-21T12:26:14;4.47;;;2.37;;
10904;SDS011;5505;51.450;9.254;2023-08-21T12:29:05;4.13;;;2.60;;
10904;SDS011;5505;51.450;9.254;2023-08-21T12:31:52;3.92;;;2.30;;
10904;SDS011;5505;51.450;9.254;2023-08-21T12:34:40;6.80;;;3.03;;
10904;SDS011;5505;51.450;9.254;2023-08-21T12:37:27;3.07;;;2.70;;
10904;SDS011;5505;51.450;9.254;2023-08-21T12:40:14;5.38;;;2.40;;
10904;SDS011;5505;51.450;9.254;2023-08-21T12:43:00;3.08;;;2.60;;
10904;SDS011;5505;51.450;9.254;2023-08-21T12:45:47;4.85;;;2.30;;
10904;SDS011;5505;51.450;9.254;2023-08-21T12:48:34;3.97;;;2.40;;
10904;SDS011;5505;51.450;9.254;2023-08-21T12:51:22;4.82;;;2.30;;
10904;SDS011;5505;51.450;9.254;2023-08-21T12:54:09;5.47;;;2.70;;
10904;SDS011;5505;51.450;9.254;2023-08-21T12:56:56;4.10;;;2.45;;
10904;SDS011;5505;51.450;9.254;2023-08-21T12:59:42;6.88;;;2.58;;
10904;SDS011;5505;51.450;9.254;2023-08-21T13:02:29;2.25;;;2.05;;
10904;SDS011;5505;51.450;9.254;2023-08-21T13:05:16;5.45;;;2.50;;
10904;SDS011;5505;51.450;9.254;2023-08-21T13:08:04;5.45;;;2.70;;
10904;SDS011;5505;51.450;9.254;2023-08-21T13:10:51;3.40;;;2.22;;
10904;SDS011;5505;51.450;9.254;2023-08-21T13:13:38;4.37;;;2.57;;
10904;SDS011;5505;51.450;9.254;2023-08-21T13:16:25;5.93;;;2.50;;
10904;SDS011;5505;51.450;9.254;2023-08-21T13:19:12;4.25;;;2.70;;
10904;SDS011;5505;51.450;9.254;2023-08-21T13:21:58;4.37;;;2.60;;
10904;SDS011;5505;51.450;9.254;2023-08-21T13:24:46;3.63;;;2.50;;
10904;SDS011;5505;51.450;9.254;2023-08-21T13:27:33;3.10;;;2.20;;
10904;SDS011;5505;51.450;9.254;2023-08-21T13:30:20;3.00;;;2.80;;
10904;SDS011;5505;51.450;9.254;2023-08-21T13:33:07;3.13;;;2.20;;
10904;SDS011;5505;51.450;9.254;2023-08-21T13:35:54;3.20;;;2.53;;
10904;SDS011;5505;51.450;9.254;2023-08-21T13:38:41;3.75;;;2.42;;
10904;SDS011;5505;51.450;9.254;2023-08-21T13:41:29;4.22;;;2.40;;
10904;SDS011;5505;51.450;9.254;2023-08-21T13:44:15;4.67;;;2.63;;
10904;SDS011;5505;51.450;9.254;2023-08-21T13:47:02;3.00;;;2.20;;
10904;SDS011;5505;51.450;9.254;2023-08-21T13:49:49;3.22;;;2.15;;
10904;SDS011;5505;51.450;9.254;2023-08-21T13:52:36;3.50;;;2.28;;
10904;SDS011;5505;51.450;9.254;2023-08-21T13:55:24;3.10;;;2.40;;
10904;SDS011;5505;51.450;9.254;2023-08-21T13:58:12;3.40;;;2.40;;
10904;SDS011;5505;51.450;9.254;2023-08-21T14:01:00;3.95;;;2.20;;
10904;SDS011;5505;51.450;9.254;2023-08-21T14:03:46;3.78;;;2.35;;
10904;SDS011;5505;51.450;9.254;2023-08-21T14:06:33;5.15;;;2.28;;
10904;SDS011;5505;51.450;9.254;2023-08-21T14:09:20;3.53;;;2.10;;
10904;SDS011;5505;51.450;9.254;2023-08-21T14:12:07;3.67;;;2.40;;
10904;SDS011;5505;51.450;9.254;2023-08-21T14:14:55;2.40;;;2.20;;
10904;SDS011;5505;51.450;9.254;2023-08-21T14:17:42;3.95;;;2.30;;
10904;SDS011;5505;51.450;9.254;2023-08-21T14:20:28;3.35;;;2.38;;
10904;SDS011;5505;51.450;9.254;2023-08-21T14:23:15;3.55;;;2.20;;
10904;SDS011;5505;51.450;9.254;2023-08-21T14:26:02;4.55;;;2.30;;
10904;SDS011;5505;51.450;9.254;2023-08-21T14:28:49;7.20;;;2.38;;
10904;SDS011;5505;51.450;9.254;2023-08-21T14:31:37;3.25;;;2.33;;
10904;SDS011;5505;51.450;9.254;2023-08-21T14:34:24;5.00;;;2.13;;
10904;SDS011;5505;51.450;9.254;2023-08-21T14:37:11;4.78;;;2.20;;
10904;SDS011;5505;51.450;9.254;2023-08-21T14:40:00;4.40;;;2.30;;
10904;SDS011;5505;51.450;9.254;2023-08-21T14:42:51;4.80;;;2.20;;
10904;SDS011;5505;51.450;9.254;2023-08-21T14:45:38;2.63;;;2.30;;
10904;SDS011;5505;51.450;9.254;2023-08-21T14:48:26;3.40;;;2.40;;
10904;SDS011;5505;51.450;9.254;2023-08-21T14:51:13;5.72;;;2.45;;
10904;SDS011;5505;51.450;9.254;2023-08-21T14:54:00;3.63;;;2.15;;
10904;SDS011;5505;51.450;9.254;2023-08-21T14:56:46;5.50;;;2.20;;
10904;SDS011;5505;51.450;9.254;2023-08-21T14:59:33;5.60;;;2.10;;
10904;SDS011;5505;51.450;9.254;2023-08-21T15:02:20;4.88;;;2.47;;
10904;SDS011;5505;51.450;9.254;2023-08-21T15:05:08;4.32;;;2.22;;
10904;SDS011;5505;51.450;9.254;2023-08-21T15:07:56;3.33;;;2.08;;
10904;SDS011;5505;51.450;9.254;2023-08-21T15:10:46;2.92;;;2.25;;
10904;SDS011;5505;51.450;9.254;2023-08-21T15:13:33;5.15;;;2.22;;
10904;SDS011;5505;51.450;9.254;2023-08-21T15:16:19;4.32;;;2.30;;
10904;SDS011;5505;51.450;9.254;2023-08-21T15:19:06;3.33;;;2.50;;
10904;SDS011;5505;51.450;9.254;2023-08-21T15:21:54;5.03;;;2.05;;
10904;SDS011;5505;51.450;9.254;2023-08-21T15:24:41;6.88;;;2.33;;
10904;SDS011;5505;51.450;9.254;2023-08-21T15:27:28;5.50;;;2.13;;
10904;SDS011;5505;51.450;9.254;2023-08-21T15:30:15;4.38;;;1.98;;
10904;SDS011;5505;51.450;9.254;2023-08-21T15:33:02;4.90;;;2.33;;
10904;SDS011;5505;51.450;9.254;2023-08-21T15:35:49;4.65;;;2.20;;
10904;SDS011;5505;51.450;9.254;2023-08-21T15:38:37;4.75;;;2.55;;
10904;SDS011;5505;51.450;9.254;2023-08-21T15:41:24;6.82;;;2.03;;
10904;SDS011;5505;51.450;9.254;2023-08-21T15:44:11;11.18;;;2.42;;
10904;SDS011;5505;51.450;9.254;2023-08-21T15:46:57;7.73;;;2.50;;
10904;SDS011;5505;51.450;9.254;2023-08-21T15:49:45;19.37;;;3.17;;
10904;SDS011;5505;51.450;9.254;2023-08-21T15:52:33;3.00;;;2.40;;
10904;SDS011;5505;51.450;9.254;2023-08-21T15:55:24;2.63;;;2.10;;
10904;SDS011;5505;51.450;9.254;2023-08-21T15:58:11;9.38;;;2.22;;
10904;SDS011;5505;51.450;9.254;2023-08-21T16:00:58;7.18;;;2.40;;
10904;SDS011;5505;51.450;9.254;2023-08-21T16:03:45;4.15;;;2.20;;
10904;SDS011;5505;51.450;9.254;2023-08-21T16:06:32;2.67;;;2.30;;
10904;SDS011;5505;51.450;9.254;2023-08-21T16:09:19;2.97;;;1.85;;
10904;SDS011;5505;51.450;9.254;2023-08-21T16:12:07;6.22;;;2.10;;
10904;SDS011;5505;51.450;9.254;2023-08-21T16:14:54;3.30;;;2.20;;
10904;SDS011;5505;51.450;9.254;2023-08-21T16:17:41;3.65;;;2.05;;
10904;SDS011;5505;51.450;9.254;2023-08-21T16:20:27;3.83;;;2.00;;
10904;SDS011;5505;51.450;9.254;2023-08-21T16:23:14;6.60;;;2.30;;
10904;SDS011;5505;51.450;9.254;2023-08-21T16:26:01;7.38;;;2.35;;
10904;SDS011;5505;51.450;9.254;2023-08-21T16:28:49;4.93;;;2.05;;
10904;SDS011;5505;51.450;9.254;2023-08-21T16:31:36;4.88;;;2.33;;
10904;SDS011;5505;51.450;9.254;2023-08-21T16:34:23;8.37;;;2.20;;
10904;SDS011;5505;51.450;9.254;2023-08-21T16:37:10;5.93;;;2.67;;
10904;SDS011;5505;51.450;9.254;2023-08-21T16:39:56;2.67;;;1.85;;
10904;SDS011;5505;51.450;9.254;2023-08-21T16:42:43;2.92;;;2.00;;
10904;SDS011;5505;51.450;9.254;2023-08-21T16:45:31;6.07;;;2.17;;
10904;SDS011;5505;51.450;9.254;2023-08-21T16:48:19;5.88;;;2.08;;
10904;SDS011;5505;51.450;9.254;2023-08-21T16:51:06;7.95;;;2.17;;
10904;SDS011;5505;51.450;9.254;2023-08-21T16:53:53;4.55;;;2.00;;
10904;SDS011;5505;51.450;9.254;2023-08-21T16:56:41;6.60;;;2.50;;
10904;SDS011;5505;51.450;9.254;2023-08-21T16:59:28;4.37;;;2.17;;
10904;SDS011;5505;51.450;9.254;2023-08-21T17:02:16;3.95;;;1.98;;
10904;SDS011;5505;51.450;9.254;2023-08-21T17:05:06;5.60;;;2.05;;
10904;SDS011;5505;51.450;9.254;2023-08-21T17:07:53;3.53;;;2.00;;
10904;SDS011;5505;51.450;9.254;2023-08-21T17:10:40;1.95;;;1.70;;